createdAt,value
2018-04-01T00:01:50.999Z,98130.83
2018-04-01T00:04:17.112Z,98130.91
2018-04-01T00:06:43.231Z,98141.47
2018-04-01T00:09:09.420Z,98144.31
2018-04-01T00:11:36.291Z,98146.17
2018-04-01T00:14:02.451Z,98148.95
2018-04-01T00:16:28.533Z,98165.59
2018-04-01T00:18:54.713Z,98148.19
2018-04-01T00:21:20.826Z,98168.30
2018-04-01T00:23:47.939Z,98129.52
2018-04-01T00:26:14.165Z,98168.89
2018-04-01T00:28:40.292Z,98154.06
2018-04-01T00:31:06.421Z,98160.52
2018-04-01T00:33:32.547Z,98153.18
2018-04-01T00:35:58.675Z,98145.61
2018-04-01T00:38:24.835Z,98150.64
2018-04-01T00:40:50.982Z,98143.66
2018-04-01T00:43:17.080Z,98151.77
2018-04-01T00:45:43.200Z,98154.27
2018-04-01T00:48:09.308Z,98154.28
2018-04-01T00:50:35.408Z,98162.71
2018-04-01T00:53:02.272Z,98161.08
2018-04-01T00:55:28.399Z,98160.65
2018-04-01T00:57:54.512Z,98159.86
2018-04-01T01:00:20.642Z,98161.97
2018-04-01T01:02:46.770Z,98155.67
2018-04-01T01:05:13.080Z,98156.61
2018-04-01T01:07:39.951Z,98157.73
2018-04-01T01:10:06.101Z,98167.08
2018-04-01T01:12:32.200Z,98155.58
2018-04-01T01:14:58.327Z,98148.09
2018-04-01T01:17:24.488Z,98159.28
2018-04-01T01:19:50.604Z,98157.73
2018-04-01T01:22:16.764Z,98171.98
2018-04-01T01:24:42.902Z,98164.16
2018-04-01T01:27:09.845Z,98164.02
2018-04-01T01:29:36.787Z,98154.06
2018-04-01T01:32:02.873Z,98169.98
2018-04-01T01:34:29.007Z,98144.21
2018-04-01T01:36:55.851Z,98157.98
2018-04-01T01:39:22.032Z,98139.94
2018-04-01T01:41:48.904Z,98137.41
2018-04-01T01:44:15.074Z,98155.73
2018-04-01T01:46:41.203Z,98152.67
2018-04-01T01:49:07.389Z,98158.06
2018-04-01T01:51:33.536Z,98147.38
2018-04-01T01:53:59.623Z,98159.13
2018-04-01T01:56:25.738Z,98160.41
2018-04-01T01:58:52.582Z,98170.16
2018-04-01T02:01:19.474Z,98155.45
2018-04-01T02:03:45.581Z,98178.63
2018-04-01T02:06:11.840Z,98191.39
2018-04-01T02:08:37.973Z,98163.73
2018-04-01T02:11:04.094Z,98160.28
2018-04-01T02:13:30.231Z,98163.73
2018-04-01T02:15:56.370Z,98160.84
2018-04-01T02:18:23.237Z,98171.04
2018-04-01T02:20:49.347Z,98164.30
2018-04-01T02:23:16.270Z,98172.71
2018-04-01T02:25:42.365Z,98171.23
2018-04-01T02:28:08.479Z,98169.73
2018-04-01T02:30:34.619Z,98175.92
2018-04-01T02:33:00.744Z,98179.70
2018-04-01T02:35:26.930Z,98177.53
2018-04-01T02:37:53.770Z,98184.53
2018-04-01T02:40:20.726Z,98177.93
2018-04-01T02:42:46.882Z,98183.25
2018-04-01T02:45:13.043Z,98194.14
2018-04-01T02:47:39.153Z,98182.97
2018-04-01T02:50:05.345Z,98193.31
2018-04-01T02:52:31.484Z,98196.83
2018-04-01T02:54:57.609Z,98188.61
2018-04-01T02:57:23.741Z,98198.11
2018-04-01T02:59:49.865Z,98195.70
2018-04-01T03:02:16.019Z,98201.63
2018-04-01T03:04:42.198Z,98204.27
2018-04-01T03:07:08.349Z,98207.39
2018-04-01T03:09:34.506Z,98202.77
2018-04-01T03:12:00.692Z,98203.98
2018-04-01T03:14:27.540Z,98211.41
2018-04-01T03:16:53.708Z,98211.77
2018-04-01T03:19:19.820Z,98203.42
2018-04-01T03:21:46.028Z,98212.94
2018-04-01T03:24:12.171Z,98202.02
2018-04-01T03:26:38.317Z,98215.84
2018-04-01T03:29:04.433Z,98219.52
2018-04-01T03:31:30.594Z,98210.97
2018-04-01T03:33:57.469Z,98213.25
2018-04-01T03:36:23.625Z,98207.64
2018-04-01T03:38:49.727Z,98219.88
2018-04-01T03:41:15.911Z,98220.77
2018-04-01T03:43:42.050Z,98234.19
2018-04-01T03:46:08.964Z,98226.89
2018-04-01T03:48:35.110Z,98232.62
2018-04-01T03:51:01.237Z,98238.70
2018-04-01T03:53:27.325Z,98227.42
2018-04-01T03:55:53.452Z,98241.27
2018-04-01T03:58:19.568Z,98244.69
2018-04-01T04:00:45.692Z,98251.64
2018-04-01T04:03:11.866Z,98249.75
2018-04-01T04:05:37.952Z,98257.41
2018-04-01T04:08:04.157Z,98258.55
2018-04-01T04:10:30.344Z,98259.39
2018-04-01T04:12:56.784Z,98259.64
2018-04-01T04:15:23.642Z,98273.91
2018-04-01T04:17:50.445Z,98270.85
2018-04-01T04:20:16.558Z,98285.83
2018-04-01T04:22:42.669Z,98269.03
2018-04-01T04:25:08.806Z,98279.97
2018-04-01T04:27:34.933Z,98290.58
2018-04-01T04:30:01.436Z,98288.59
2018-04-01T04:32:27.548Z,98285.77
2018-04-01T04:34:54.396Z,98292.97
2018-04-01T04:37:21.305Z,98288.04
2018-04-01T04:39:47.485Z,98295.67
2018-04-01T04:42:13.629Z,98285.87
2018-04-01T04:44:39.744Z,98291.14
2018-04-01T04:47:05.881Z,98300.53
2018-04-01T04:49:32.066Z,98301.86
2018-04-01T04:51:58.937Z,98308.23
2018-04-01T04:54:25.075Z,98304.38
2018-04-01T04:56:51.234Z,98312.19
2018-04-01T04:59:17.365Z,98317.96
2018-04-01T05:01:44.213Z,98321.06
2018-04-01T05:04:10.394Z,98317.61
2018-04-01T05:06:36.517Z,98321.94
2018-04-01T05:09:02.705Z,98334.38
2018-04-01T05:11:28.878Z,98323.28
2018-04-01T05:13:54.989Z,98331.52
2018-04-01T05:16:21.506Z,98336.20
2018-04-01T05:18:48.464Z,98329.06
2018-04-01T05:21:15.352Z,98335.02
2018-04-01T05:23:41.505Z,98334.14
2018-04-01T05:26:07.668Z,98336.17
2018-04-01T05:28:33.842Z,98349.73
2018-04-01T05:30:59.978Z,98354.70
2018-04-01T05:33:26.110Z,98356.17
2018-04-01T05:35:52.276Z,98360.55
2018-04-01T05:38:18.372Z,98364.44
2018-04-01T05:40:44.551Z,98369.23
2018-04-01T05:43:10.707Z,98366.62
2018-04-01T05:45:36.864Z,98382.77
2018-04-01T05:48:03.775Z,98369.98
2018-04-01T05:50:29.969Z,98379.82
2018-04-01T05:52:56.169Z,98376.87
2018-04-01T05:55:23.086Z,98379.80
2018-04-01T05:57:49.207Z,98379.80
2018-04-01T06:00:15.332Z,98378.56
2018-04-01T06:02:41.459Z,98379.60
2018-04-01T06:05:07.581Z,98378.11
2018-04-01T06:07:33.717Z,98387.95
2018-04-01T06:09:59.873Z,98388.72
2018-04-01T06:12:26.751Z,98382.41
2018-04-01T06:14:52.923Z,98385.45
2018-04-01T06:17:19.067Z,98393.37
2018-04-01T06:19:45.185Z,98392.51
2018-04-01T06:22:11.326Z,98391.93
2018-04-01T06:24:38.248Z,98408.69
2018-04-01T06:27:04.366Z,98400.05
2018-04-01T06:29:30.522Z,98393.17
2018-04-01T06:31:57.382Z,98395.29
2018-04-01T06:34:23.770Z,98401.66
2018-04-01T06:36:49.908Z,98406.58
2018-04-01T06:39:16.032Z,98387.64
2018-04-01T06:41:42.948Z,98398.94
2018-04-01T06:44:09.084Z,98419.23
2018-04-01T06:46:36.227Z,98403.42
2018-04-01T06:49:02.380Z,98405.49
2018-04-01T06:51:28.541Z,98403.62
2018-04-01T06:53:54.705Z,98410.64
2018-04-01T06:56:20.847Z,98399.08
2018-04-01T06:58:46.954Z,98405.30
2018-04-01T07:01:13.094Z,98412.23
2018-04-01T07:03:39.225Z,98413.13
2018-04-01T07:06:05.375Z,98412.52
2018-04-01T07:08:32.293Z,98414.78
2018-04-01T07:10:58.435Z,98421.52
2018-04-01T07:13:24.641Z,98413.18
2018-04-01T07:15:50.753Z,98421.23
2018-04-01T07:18:16.890Z,98420.41
2018-04-01T07:20:43.014Z,98431.25
2018-04-01T07:23:09.131Z,98412.52
2018-04-01T07:25:35.319Z,98412.05
2018-04-01T07:28:02.215Z,98409.20
2018-04-01T07:30:28.344Z,98412.80
2018-04-01T07:32:54.473Z,98408.67
2018-04-01T07:35:20.607Z,98419.16
2018-04-01T07:37:46.772Z,98423.77
2018-04-01T07:40:13.632Z,98422.48
2018-04-01T07:42:39.795Z,98438.16
2018-04-01T07:45:05.902Z,98430.26
2018-04-01T07:47:32.028Z,98456.31
2018-04-01T07:49:58.141Z,98442.29
2018-04-01T07:52:24.272Z,98441.45
2018-04-01T07:54:50.421Z,98450.02
2018-04-01T07:57:16.542Z,98459.19
2018-04-01T07:59:42.664Z,98474.34
2018-04-01T08:02:08.791Z,98454.89
2018-04-01T08:04:34.932Z,98464.00
2018-04-01T08:07:01.032Z,98442.45
2018-04-01T08:09:27.168Z,98463.34
2018-04-01T08:11:53.304Z,98464.36
2018-04-01T08:14:19.436Z,98451.05
2018-04-01T08:16:45.604Z,98457.97
2018-04-01T08:19:12.490Z,98462.05
2018-04-01T08:21:38.616Z,98483.31
2018-04-01T08:24:04.778Z,98467.46
2018-04-01T08:26:30.935Z,98442.78
2018-04-01T08:28:57.807Z,98485.88
2018-04-01T08:31:23.933Z,98491.92
2018-04-01T08:33:50.059Z,98494.93
2018-04-01T08:36:16.186Z,98498.59
2018-04-01T08:38:42.309Z,98496.72
2018-04-01T08:41:08.450Z,98504.84
2018-04-01T08:43:34.583Z,98500.29
2018-04-01T08:46:01.065Z,98499.86
2018-04-01T08:48:27.530Z,98503.43
2018-04-01T08:50:53.645Z,98498.02
2018-04-01T08:53:20.490Z,98513.09
2018-04-01T08:55:47.372Z,98508.62
2018-04-01T08:58:13.547Z,98515.59
2018-04-01T09:00:40.446Z,98512.77
2018-04-01T09:03:06.584Z,98513.06
2018-04-01T09:05:32.692Z,98536.66
2018-04-01T09:07:58.816Z,98578.53
2018-04-01T09:10:25.044Z,98506.24
2018-04-01T09:12:51.152Z,98527.25
2018-04-01T09:15:17.270Z,98537.28
2018-04-01T09:17:43.397Z,98530.39
2018-04-01T09:20:09.557Z,98542.88
2018-04-01T09:22:35.731Z,98533.95
2018-04-01T09:25:02.629Z,98552.86
2018-04-01T09:27:28.790Z,98553.27
2018-04-01T09:29:54.922Z,98545.05
2018-04-01T09:32:21.049Z,98559.20
2018-04-01T09:34:47.144Z,98557.16
2018-04-01T09:37:13.248Z,98566.95
2018-04-01T09:39:39.365Z,98556.53
2018-04-01T09:42:05.482Z,98593.56
2018-04-01T09:44:31.627Z,98575.34
2018-04-01T09:46:57.761Z,98573.52
2018-04-01T09:49:23.903Z,98589.30
2018-04-01T09:51:50.033Z,98599.62
2018-04-01T09:54:16.271Z,98592.08
2018-04-01T09:56:42.421Z,98602.36
2018-04-01T09:59:08.495Z,98590.83
2018-04-01T10:01:35.656Z,98606.62
2018-04-01T10:04:01.969Z,98596.99
2018-04-01T10:06:28.248Z,98603.48
2018-04-01T10:08:54.548Z,98631.38
2018-04-01T10:11:20.903Z,98601.78
2018-04-01T10:13:47.208Z,98616.61
2018-04-01T10:16:13.737Z,98600.91
2018-04-01T10:18:40.024Z,98606.63
2018-04-01T10:21:07.155Z,98610.18
2018-04-01T10:23:33.508Z,98608.78
2018-04-01T10:26:00.544Z,98621.48
2018-04-01T10:28:26.824Z,98611.66
2018-04-01T10:30:53.165Z,98605.77
2018-04-01T10:33:19.447Z,98622.45
2018-04-01T10:35:46.470Z,98626.70
2018-04-01T10:38:12.769Z,98639.44
2018-04-01T10:40:39.880Z,98617.87
2018-04-01T10:43:06.867Z,98630.77
2018-04-01T10:45:33.227Z,98634.88
2018-04-01T10:47:59.526Z,98623.41
2018-04-01T10:50:25.795Z,98622.17
2018-04-01T10:52:52.108Z,98634.03
2018-04-01T10:55:18.248Z,98647.36
2018-04-01T10:57:44.364Z,98620.55
2018-04-01T11:00:10.452Z,98632.97
2018-04-01T11:02:36.584Z,98612.00
2018-04-01T11:05:02.713Z,98627.41
2018-04-01T11:07:28.838Z,98635.20
2018-04-01T11:09:54.943Z,98632.16
2018-04-01T11:12:21.818Z,98627.34
2018-04-01T11:14:47.949Z,98645.65
2018-04-01T11:17:14.123Z,98631.96
2018-04-01T11:19:40.991Z,98610.41
2018-04-01T11:22:07.120Z,98624.25
2018-04-01T11:24:33.278Z,98638.77
2018-04-01T11:26:59.409Z,98635.88
2018-04-01T11:29:25.575Z,98652.25
2018-04-01T11:31:52.488Z,98634.11
2018-04-01T11:34:18.600Z,98633.72
2018-04-01T11:36:44.721Z,98630.12
2018-04-01T11:39:10.834Z,98623.55
2018-04-01T11:41:36.946Z,98641.40
2018-04-01T11:44:03.088Z,98646.80
2018-04-01T11:46:29.261Z,98641.52
2018-04-01T11:48:55.419Z,98649.95
2018-04-01T11:51:22.259Z,98636.30
2018-04-01T11:53:49.179Z,98668.67
2018-04-01T11:56:15.279Z,98658.19
2018-04-01T11:58:42.157Z,98664.55
2018-04-01T12:01:09.005Z,98675.20
2018-04-01T12:03:35.855Z,98666.39
2018-04-01T12:06:02.722Z,98669.84
2018-04-01T12:08:28.826Z,98662.83
2018-04-01T12:10:55.718Z,98681.70
2018-04-01T12:13:21.820Z,98676.00
2018-04-01T12:15:48.019Z,98681.75
2018-04-01T12:18:14.932Z,98677.78
2018-04-01T12:20:41.181Z,98684.70
2018-04-01T12:23:07.300Z,98683.30
2018-04-01T12:25:33.427Z,98688.20
2018-04-01T12:27:59.675Z,98688.45
2018-04-01T12:30:26.551Z,98701.08
2018-04-01T12:32:52.662Z,98685.44
2018-04-01T12:35:19.512Z,98713.33
2018-04-01T12:37:45.725Z,98683.34
2018-04-01T12:40:12.585Z,98679.24
2018-04-01T12:42:38.719Z,98693.31
2018-04-01T12:45:04.855Z,98683.09
2018-04-01T12:47:30.939Z,98679.91
2018-04-01T12:49:57.791Z,98676.56
2018-04-01T12:52:24.702Z,98691.69
2018-04-01T12:54:51.000Z,98674.71
2018-04-01T12:57:17.124Z,98682.78
2018-04-01T12:59:43.248Z,98709.94
2018-04-01T13:02:09.404Z,98697.52
2018-04-01T13:04:35.538Z,98687.28
2018-04-01T13:07:03.172Z,98674.47
2018-04-01T13:09:33.758Z,98685.20
2018-04-01T13:11:59.915Z,98699.42
2018-04-01T13:14:26.114Z,98671.56
2018-04-01T13:16:52.975Z,98700.67
2018-04-01T13:19:19.092Z,98696.10
2018-04-01T13:21:45.938Z,98704.06
2018-04-01T13:24:12.885Z,98707.55
2018-04-01T13:26:38.975Z,98715.80
2018-04-01T13:29:05.157Z,98723.81
2018-04-01T13:31:31.243Z,98715.52
2018-04-01T13:33:58.188Z,98721.92
2018-04-01T13:36:24.315Z,98725.19
2018-04-01T13:38:50.436Z,98713.70
2018-04-01T13:41:16.542Z,98734.72
2018-04-01T13:43:42.672Z,98723.77
2018-04-01T13:46:08.845Z,98726.03
2018-04-01T13:48:34.987Z,98728.91
2018-04-01T13:51:01.450Z,98723.06
2018-04-01T13:53:27.596Z,98725.82
2018-04-01T13:55:53.758Z,98722.02
2018-04-01T13:58:19.880Z,98745.66
2018-04-01T14:00:48.187Z,98767.18
2018-04-01T14:03:14.301Z,98740.20
2018-04-01T14:05:40.428Z,98748.36
2018-04-01T14:08:06.853Z,98744.19
2018-04-01T14:10:32.995Z,98746.88
2018-04-01T14:12:59.105Z,98744.66
2018-04-01T14:15:25.269Z,98743.70
2018-04-01T14:17:51.407Z,98753.19
2018-04-01T14:20:18.438Z,98762.53
2018-04-01T14:22:44.671Z,98754.20
2018-04-01T14:25:10.832Z,98763.49
2018-04-01T14:27:36.995Z,98761.11
2018-04-01T14:30:03.167Z,98758.35
2018-04-01T14:32:29.319Z,98773.50
2018-04-01T14:34:55.448Z,98768.94
2018-04-01T14:37:21.575Z,98764.84
2018-04-01T14:39:48.500Z,98776.31
2018-04-01T14:42:14.688Z,98781.66
2018-04-01T14:44:40.804Z,98780.94
2018-04-01T14:47:07.026Z,98790.36
2018-04-01T14:49:33.384Z,98783.08
2018-04-01T14:51:59.516Z,98787.70
2018-04-01T14:54:25.620Z,98779.27
2018-04-01T14:56:51.760Z,98790.38
2018-04-01T14:59:17.929Z,98796.33
2018-04-01T15:01:44.114Z,98791.75
2018-04-01T15:04:10.289Z,98802.64
2018-04-01T15:06:36.428Z,98802.66
2018-04-01T15:09:03.302Z,98786.80
2018-04-01T15:11:29.561Z,98795.46
2018-04-01T15:13:55.688Z,98797.91
2018-04-01T15:16:21.843Z,98808.48
2018-04-01T15:18:47.951Z,98811.80
2018-04-01T15:21:14.069Z,98815.02
2018-04-01T15:23:40.214Z,98799.09
2018-04-01T15:26:08.170Z,98797.88
2018-04-01T15:28:34.284Z,98807.77
2018-04-01T15:31:00.423Z,98802.00
2018-04-01T15:33:26.543Z,98814.23
2018-04-01T15:35:52.710Z,98822.03
2018-04-01T15:38:19.614Z,98824.44
2018-04-01T15:40:46.042Z,98832.28
2018-04-01T15:43:12.423Z,98822.31
2018-04-01T15:45:38.516Z,98828.05
2018-04-01T15:48:04.614Z,98825.86
2018-04-01T15:50:31.796Z,98831.97
2018-04-01T15:52:57.942Z,98836.66
2018-04-01T15:55:24.806Z,98829.32
2018-04-01T15:57:50.963Z,98842.51
2018-04-01T16:00:17.062Z,98827.09
2018-04-01T16:02:43.952Z,98833.25
2018-04-01T16:05:10.887Z,98835.02
2018-04-01T16:07:37.041Z,98840.14
2018-04-01T16:10:03.145Z,98834.91
2018-04-01T16:12:30.457Z,98854.27
2018-04-01T16:14:57.299Z,98845.45
2018-04-01T16:17:24.407Z,98829.72
2018-04-01T16:19:50.539Z,98827.71
2018-04-01T16:22:17.467Z,98835.47
2018-04-01T16:24:43.570Z,98843.08
2018-04-01T16:27:10.079Z,98835.90
2018-04-01T16:29:38.509Z,98843.53
2018-04-01T16:32:04.708Z,98852.27
2018-04-01T16:34:32.327Z,98853.80
2018-04-01T16:36:58.504Z,98864.09
2018-04-01T16:39:25.230Z,98860.52
2018-04-01T16:41:51.434Z,98873.19
2018-04-01T16:44:17.571Z,98866.96
2018-04-01T16:46:44.443Z,98873.74
2018-04-01T16:49:10.573Z,98866.05
2018-04-01T16:51:36.707Z,98880.19
2018-04-01T16:54:02.864Z,98885.29
2018-04-01T16:56:28.949Z,98888.00
2018-04-01T16:58:55.100Z,98890.25
2018-04-01T17:01:21.904Z,98894.15
2018-04-01T17:03:48.095Z,98895.07
2018-04-01T17:06:14.216Z,98899.28
2018-04-01T17:08:40.367Z,98896.43
2018-04-01T17:11:07.255Z,98901.94
2018-04-01T17:13:33.653Z,98907.37
2018-04-01T17:16:00.498Z,98916.38
2018-04-01T17:18:26.656Z,98910.71
2018-04-01T17:20:52.812Z,98912.11
2018-04-01T17:23:18.935Z,98918.09
2018-04-01T17:25:45.092Z,98921.16
2018-04-01T17:28:11.267Z,98932.70
2018-04-01T17:30:37.407Z,98939.10
2018-04-01T17:33:03.534Z,98943.14
2018-04-01T17:35:29.704Z,98941.56
2018-04-01T17:37:56.618Z,98947.91
2018-04-01T17:40:23.072Z,98948.70
2018-04-01T17:42:50.004Z,98949.03
2018-04-01T17:45:16.927Z,98955.56
2018-04-01T17:47:43.043Z,98951.66
2018-04-01T17:50:09.185Z,98953.50
2018-04-01T17:52:35.294Z,98968.91
2018-04-01T17:55:01.455Z,98977.83
2018-04-01T17:57:27.879Z,98973.55
2018-04-01T17:59:53.973Z,98989.00
2018-04-01T18:02:20.113Z,98983.00
2018-04-01T18:04:46.228Z,98992.03
2018-04-01T18:07:12.694Z,98997.09
2018-04-01T18:09:38.831Z,98998.84
2018-04-01T18:12:05.084Z,99015.97
2018-04-01T18:14:32.003Z,99023.26
2018-04-01T18:16:58.899Z,99013.55
2018-04-01T18:19:25.199Z,99024.48
2018-04-01T18:21:51.326Z,99021.57
2018-04-01T18:24:17.556Z,99031.25
2018-04-01T18:26:44.430Z,99027.06
2018-04-01T18:29:10.585Z,99035.77
2018-04-01T18:31:36.796Z,99038.58
2018-04-01T18:34:02.984Z,99041.42
2018-04-01T18:36:29.124Z,99051.55
2018-04-01T18:38:56.118Z,99029.56
2018-04-01T18:41:22.275Z,99040.48
2018-04-01T18:43:49.482Z,99046.27
2018-04-01T18:46:15.697Z,99046.98
2018-04-01T18:48:41.880Z,99046.76
2018-04-01T18:51:08.157Z,99048.72
2018-04-01T18:53:34.455Z,99057.10
2018-04-01T18:56:01.012Z,99049.36
2018-04-01T18:58:27.259Z,99059.12
2018-04-01T19:00:53.458Z,99058.19
2018-04-01T19:03:19.610Z,99063.84
2018-04-01T19:05:45.763Z,99061.99
2018-04-01T19:08:12.036Z,99075.89
2018-04-01T19:10:38.946Z,99068.73
2018-04-01T19:13:05.109Z,99077.14
2018-04-01T19:15:32.063Z,99080.27
2018-04-01T19:17:58.513Z,99071.58
2018-04-01T19:20:25.201Z,99081.64
2018-04-01T19:22:51.664Z,99073.57
2018-04-01T19:25:18.892Z,99074.03
2018-04-01T19:27:45.590Z,99087.93
2018-04-01T19:30:13.068Z,99089.13
2018-04-01T19:32:39.400Z,99101.87
2018-04-01T19:35:06.261Z,99100.10
2018-04-01T19:37:32.589Z,99097.49
2018-04-01T19:39:58.905Z,99092.70
2018-04-01T19:42:25.347Z,99092.20
2018-04-01T19:44:51.693Z,99093.19
2018-04-01T19:47:17.994Z,99101.05
2018-04-01T19:49:44.381Z,99099.78
2018-04-01T19:52:11.417Z,99098.86
2018-04-01T19:54:38.607Z,99099.19
2018-04-01T19:57:05.901Z,99107.20
2018-04-01T19:59:32.236Z,99105.23
2018-04-01T20:01:58.590Z,99111.90
2018-04-01T20:04:25.673Z,99113.90
2018-04-01T20:06:51.986Z,99107.33
2018-04-01T20:09:18.320Z,99116.42
2018-04-01T20:11:44.664Z,99113.88
2018-04-01T20:14:10.970Z,99125.58
2018-04-01T20:16:37.994Z,99122.88
2018-04-01T20:19:04.414Z,99131.91
2018-04-01T20:21:35.595Z,99133.72
2018-04-01T20:24:02.680Z,99132.50
2018-04-01T20:26:29.172Z,99127.53
2018-04-01T20:28:56.229Z,99131.22
2018-04-01T20:31:23.289Z,99133.91
2018-04-01T20:33:49.606Z,99141.28
2018-04-01T20:36:16.769Z,99147.76
2018-04-01T20:38:43.084Z,99149.84
2018-04-01T20:41:10.130Z,99154.02
2018-04-01T20:43:37.159Z,99150.56
2018-04-01T20:46:03.481Z,99154.10
2018-04-01T20:48:29.819Z,99162.77
2018-04-01T20:50:56.180Z,99167.28
2018-04-01T20:53:23.282Z,99171.98
2018-04-01T20:55:49.625Z,99174.89
2018-04-01T20:58:16.904Z,99171.77
2018-04-01T21:00:43.961Z,99165.75
2018-04-01T21:03:10.984Z,99171.09
2018-04-01T21:05:37.312Z,99174.44
2018-04-01T21:08:04.384Z,99181.38
2018-04-01T21:10:31.427Z,99202.02
2018-04-01T21:12:58.504Z,99183.59
2018-04-01T21:15:24.881Z,99197.92
2018-04-01T21:17:51.205Z,99195.23
2018-04-01T21:20:17.493Z,99200.34
2018-04-01T21:22:43.795Z,99200.02
2018-04-01T21:25:10.076Z,99207.92
2018-04-01T21:27:36.425Z,99204.20
2018-04-01T21:30:02.763Z,99192.60
2018-04-01T21:32:29.098Z,99204.58
2018-04-01T21:34:55.406Z,99206.54
2018-04-01T21:37:21.709Z,99197.67
2018-04-01T21:39:48.002Z,99206.34
2018-04-01T21:42:14.348Z,99208.02
2018-04-01T21:44:41.488Z,99206.63
2018-04-01T21:47:07.778Z,99208.77
2018-04-01T21:49:34.471Z,99205.20
2018-04-01T21:52:01.517Z,99226.81
2018-04-01T21:54:28.554Z,99229.04
2018-04-01T21:56:54.870Z,99218.81
2018-04-01T21:59:21.136Z,99224.98
2018-04-01T22:01:47.452Z,99227.24
2018-04-01T22:04:14.591Z,99224.28
2018-04-01T22:06:40.937Z,99222.42
2018-04-01T22:09:07.967Z,99231.69
2018-04-01T22:11:34.299Z,99228.08
2018-04-01T22:14:00.583Z,99225.35
2018-04-01T22:16:26.876Z,99232.57
2018-04-01T22:18:53.907Z,99185.66
2018-04-01T22:21:20.180Z,99232.38
2018-04-01T22:23:46.508Z,99229.43
2018-04-01T22:26:12.799Z,99234.66
2018-04-01T22:28:39.146Z,99235.39
2018-04-01T22:31:06.304Z,99240.87
2018-04-01T22:33:33.331Z,99230.24
2018-04-01T22:35:59.646Z,99237.94
2018-04-01T22:38:25.950Z,99240.95
2018-04-01T22:40:52.661Z,99243.97
2018-04-01T22:43:19.669Z,99240.08
2018-04-01T22:45:45.937Z,99246.39
2018-04-01T22:48:12.977Z,99244.02
2018-04-01T22:50:39.275Z,99201.47
2018-04-01T22:53:05.629Z,99249.66
2018-04-01T22:55:32.653Z,99253.09
2018-04-01T22:57:58.983Z,99252.39
2018-04-01T23:00:25.295Z,99254.06
2018-04-01T23:02:51.593Z,99250.05
2018-04-01T23:05:17.886Z,99253.59
2018-04-01T23:07:44.229Z,99254.80
2018-04-01T23:10:11.285Z,99263.42
2018-04-01T23:15:04.640Z,99266.80
2018-04-01T23:17:30.957Z,99272.01
2018-04-01T23:19:57.232Z,99269.00
2018-04-01T23:22:24.252Z,99266.84
2018-04-01T23:24:50.564Z,99272.75
2018-04-01T23:27:16.825Z,99280.16
2018-04-01T23:29:43.158Z,99289.56
2018-04-01T23:32:10.244Z,99276.37
2018-04-01T23:34:36.546Z,99281.14
2018-04-01T23:37:03.572Z,99275.27
2018-04-01T23:39:30.208Z,99283.07
2018-04-01T23:41:56.518Z,99279.36
2018-04-01T23:44:22.824Z,99279.86
2018-04-01T23:46:49.116Z,99272.22
2018-04-01T23:49:16.135Z,99276.37
2018-04-01T23:51:42.459Z,99283.70
2018-04-01T23:54:08.760Z,99281.38
2018-04-01T23:56:35.053Z,99284.05
2018-04-01T23:59:01.390Z,99299.81
